Terminal Aerodrome Forecast
Issued by NWS

Home | Current Version | Previous Version | Text Only | Print | Product List | Glossary On
Versions: 1 2 3 4 5 6 7 8 9 10 11 12 13 14 15 16 17 18 19 20 21 22 23 24 25 26 27 28 29 30 31 32 33 34 35 36 37 38 39 40 41 42 43 44 45 46 47 48 49 50
458
FTUS46 KEKA 251749
TAFACV
TAF
KACV 251749Z 2518/2618 16005KT P6SM VCSH OVC035
     FM252100 20009KT 6SM -SHRA BKN025 OVC050
     FM260000 22009G21KT 2SM RA OVC015
     FM260600 30008KT 4SM -SHRA BKN015 OVC025
     FM261200 04005KT 6SM -SHRA FEW025 BKN050=

USA.gov is the U.S. government's official web portal to all federal, state and local government web resources and services.